sensor_id;sensor_type;location;lat;lon;timestamp;P1;durP1;ratioP1;P2;durP2;ratioP2
8993;SDS011;4532;50.886;4.700;2022-10-29T00:01:02;13.93;;;7.28;;
8993;SDS011;4532;50.886;4.700;2022-10-29T00:03:32;15.07;;;7.25;;
8993;SDS011;4532;50.886;4.700;2022-10-29T00:06:06;13.82;;;6.40;;
8993;SDS011;4532;50.886;4.700;2022-10-29T00:08:36;13.77;;;7.00;;
8993;SDS011;4532;50.886;4.700;2022-10-29T00:11:11;12.38;;;6.40;;
8993;SDS011;4532;50.886;4.700;2022-10-29T00:13:39;15.88;;;7.13;;
8993;SDS011;4532;50.886;4.700;2022-10-29T00:16:08;12.20;;;6.57;;
8993;SDS011;4532;50.886;4.700;2022-10-29T00:18:38;14.55;;;6.68;;
8993;SDS011;4532;50.886;4.700;2022-10-29T00:21:09;14.70;;;7.75;;
8993;SDS011;4532;50.886;4.700;2022-10-29T00:23:41;13.07;;;7.00;;
8993;SDS011;4532;50.886;4.700;2022-10-29T00:26:08;13.10;;;6.60;;
8993;SDS011;4532;50.886;4.700;2022-10-29T00:28:38;14.10;;;7.10;;
8993;SDS011;4532;50.886;4.700;2022-10-29T00:31:06;17.20;;;6.93;;
8993;SDS011;4532;50.886;4.700;2022-10-29T00:33:36;17.35;;;7.05;;
8993;SDS011;4532;50.886;4.700;2022-10-29T00:36:04;16.08;;;6.95;;
8993;SDS011;4532;50.886;4.700;2022-10-29T00:38:33;11.65;;;6.55;;
8993;SDS011;4532;50.886;4.700;2022-10-29T00:41:02;12.13;;;6.72;;
8993;SDS011;4532;50.886;4.700;2022-10-29T00:43:34;17.08;;;6.88;;
8993;SDS011;4532;50.886;4.700;2022-10-29T00:46:07;12.77;;;6.53;;
8993;SDS011;4532;50.886;4.700;2022-10-29T00:48:39;14.38;;;7.75;;
8993;SDS011;4532;50.886;4.700;2022-10-29T00:51:11;11.18;;;6.65;;
8993;SDS011;4532;50.886;4.700;2022-10-29T00:53:45;9.93;;;6.57;;
8993;SDS011;4532;50.886;4.700;2022-10-29T00:56:19;13.77;;;6.90;;
8993;SDS011;4532;50.886;4.700;2022-10-29T00:58:48;15.88;;;7.32;;
8993;SDS011;4532;50.886;4.700;2022-10-29T01:01:15;12.73;;;6.72;;
8993;SDS011;4532;50.886;4.700;2022-10-29T01:03:45;10.80;;;6.57;;
8993;SDS011;4532;50.886;4.700;2022-10-29T01:06:13;11.30;;;6.63;;
8993;SDS011;4532;50.886;4.700;2022-10-29T01:08:41;17.27;;;6.93;;
8993;SDS011;4532;50.886;4.700;2022-10-29T01:11:20;13.90;;;6.72;;
8993;SDS011;4532;50.886;4.700;2022-10-29T01:16:56;14.90;;;7.18;;
8993;SDS011;4532;50.886;4.700;2022-10-29T01:22:03;16.00;;;6.97;;
8993;SDS011;4532;50.886;4.700;2022-10-29T01:27:48;12.77;;;6.70;;
8993;SDS011;4532;50.886;4.700;2022-10-29T01:30:36;12.45;;;6.55;;
8993;SDS011;4532;50.886;4.700;2022-10-29T01:39:09;13.20;;;6.90;;
8993;SDS011;4532;50.886;4.700;2022-10-29T01:47:45;14.00;;;6.57;;
8993;SDS011;4532;50.886;4.700;2022-10-29T01:50:22;13.77;;;7.10;;
8993;SDS011;4532;50.886;4.700;2022-10-29T01:52:55;12.50;;;6.88;;
8993;SDS011;4532;50.886;4.700;2022-10-29T01:55:27;10.38;;;6.53;;
8993;SDS011;4532;50.886;4.700;2022-10-29T01:57:56;13.73;;;6.95;;
8993;SDS011;4532;50.886;4.700;2022-10-29T02:00:24;12.90;;;6.57;;
8993;SDS011;4532;50.886;4.700;2022-10-29T02:03:11;12.43;;;6.97;;
8993;SDS011;4532;50.886;4.700;2022-10-29T02:05:57;14.43;;;6.93;;
8993;SDS011;4532;50.886;4.700;2022-10-29T02:08:29;14.27;;;7.28;;
8993;SDS011;4532;50.886;4.700;2022-10-29T02:11:00;16.20;;;7.25;;
8993;SDS011;4532;50.886;4.700;2022-10-29T02:13:44;17.20;;;7.53;;
8993;SDS011;4532;50.886;4.700;2022-10-29T02:16:20;12.73;;;6.75;;
8993;SDS011;4532;50.886;4.700;2022-10-29T02:18:49;11.18;;;6.18;;
8993;SDS011;4532;50.886;4.700;2022-10-29T02:21:17;16.55;;;7.75;;
8993;SDS011;4532;50.886;4.700;2022-10-29T02:23:45;14.73;;;7.30;;
8993;SDS011;4532;50.886;4.700;2022-10-29T02:26:12;17.80;;;7.40;;
8993;SDS011;4532;50.886;4.700;2022-10-29T02:28:40;15.55;;;6.72;;
8993;SDS011;4532;50.886;4.700;2022-10-29T02:31:10;10.77;;;7.22;;
8993;SDS011;4532;50.886;4.700;2022-10-29T02:33:37;15.68;;;7.20;;
8993;SDS011;4532;50.886;4.700;2022-10-29T02:36:05;11.30;;;6.88;;
8993;SDS011;4532;50.886;4.700;2022-10-29T02:38:32;13.82;;;6.80;;
8993;SDS011;4532;50.886;4.700;2022-10-29T02:40:59;13.85;;;7.35;;
8993;SDS011;4532;50.886;4.700;2022-10-29T02:43:29;13.52;;;7.07;;
8993;SDS011;4532;50.886;4.700;2022-10-29T02:46:12;14.68;;;7.22;;
8993;SDS011;4532;50.886;4.700;2022-10-29T02:48:41;15.25;;;7.00;;
8993;SDS011;4532;50.886;4.700;2022-10-29T02:51:09;14.88;;;6.80;;
8993;SDS011;4532;50.886;4.700;2022-10-29T02:53:39;13.98;;;7.43;;
8993;SDS011;4532;50.886;4.700;2022-10-29T02:56:06;12.88;;;7.05;;
8993;SDS011;4532;50.886;4.700;2022-10-29T02:58:36;14.50;;;7.30;;
8993;SDS011;4532;50.886;4.700;2022-10-29T03:01:06;13.13;;;6.65;;
8993;SDS011;4532;50.886;4.700;2022-10-29T03:03:33;12.48;;;7.50;;
8993;SDS011;4532;50.886;4.700;2022-10-29T03:06:01;11.00;;;6.93;;
8993;SDS011;4532;50.886;4.700;2022-10-29T03:08:28;11.15;;;6.78;;
8993;SDS011;4532;50.886;4.700;2022-10-29T03:10:56;13.98;;;6.93;;
8993;SDS011;4532;50.886;4.700;2022-10-29T03:13:23;10.77;;;6.95;;
8993;SDS011;4532;50.886;4.700;2022-10-29T03:15:50;19.48;;;8.30;;
8993;SDS011;4532;50.886;4.700;2022-10-29T03:18:17;14.30;;;7.55;;
8993;SDS011;4532;50.886;4.700;2022-10-29T03:20:49;14.00;;;7.38;;
8993;SDS011;4532;50.886;4.700;2022-10-29T03:23:17;12.32;;;7.03;;
8993;SDS011;4532;50.886;4.700;2022-10-29T03:25:47;13.38;;;7.30;;
8993;SDS011;4532;50.886;4.700;2022-10-29T03:28:22;14.18;;;6.90;;
8993;SDS011;4532;50.886;4.700;2022-10-29T03:30:50;16.40;;;7.50;;
8993;SDS011;4532;50.886;4.700;2022-10-29T03:33:17;12.40;;;6.75;;
8993;SDS011;4532;50.886;4.700;2022-10-29T03:35:44;13.38;;;6.55;;
8993;SDS011;4532;50.886;4.700;2022-10-29T03:38:12;13.23;;;7.40;;
8993;SDS011;4532;50.886;4.700;2022-10-29T03:40:41;10.00;;;7.18;;
8993;SDS011;4532;50.886;4.700;2022-10-29T03:43:09;12.00;;;6.10;;
8993;SDS011;4532;50.886;4.700;2022-10-29T03:45:36;13.32;;;7.30;;
8993;SDS011;4532;50.886;4.700;2022-10-29T03:48:05;14.10;;;6.68;;
8993;SDS011;4532;50.886;4.700;2022-10-29T03:50:32;10.88;;;6.78;;
8993;SDS011;4532;50.886;4.700;2022-10-29T03:53:00;12.07;;;6.88;;
8993;SDS011;4532;50.886;4.700;2022-10-29T03:55:29;11.85;;;6.97;;
8993;SDS011;4532;50.886;4.700;2022-10-29T03:57:56;16.05;;;7.40;;
8993;SDS011;4532;50.886;4.700;2022-10-29T04:00:24;10.93;;;7.28;;
8993;SDS011;4532;50.886;4.700;2022-10-29T04:02:51;18.58;;;7.60;;
8993;SDS011;4532;50.886;4.700;2022-10-29T04:05:19;16.23;;;7.30;;
8993;SDS011;4532;50.886;4.700;2022-10-29T04:07:48;13.90;;;7.28;;
8993;SDS011;4532;50.886;4.700;2022-10-29T04:10:15;12.10;;;7.57;;
8993;SDS011;4532;50.886;4.700;2022-10-29T04:12:45;12.95;;;7.57;;
8993;SDS011;4532;50.886;4.700;2022-10-29T04:15:13;15.63;;;7.72;;
8993;SDS011;4532;50.886;4.700;2022-10-29T04:17:40;20.10;;;7.22;;
8993;SDS011;4532;50.886;4.700;2022-10-29T04:20:07;16.50;;;7.28;;
8993;SDS011;4532;50.886;4.700;2022-10-29T04:22:55;12.57;;;7.40;;
8993;SDS011;4532;50.886;4.700;2022-10-29T04:25:42;14.48;;;7.72;;
8993;SDS011;4532;50.886;4.700;2022-10-29T04:28:29;14.48;;;7.60;;
8993;SDS011;4532;50.886;4.700;2022-10-29T04:31:10;12.68;;;8.00;;
8993;SDS011;4532;50.886;4.700;2022-10-29T04:33:40;14.00;;;6.80;;
8993;SDS011;4532;50.886;4.700;2022-10-29T04:36:07;13.02;;;7.18;;
8993;SDS011;4532;50.886;4.700;2022-10-29T04:38:34;14.10;;;7.20;;
8993;SDS011;4532;50.886;4.700;2022-10-29T04:41:03;15.43;;;7.93;;
8993;SDS011;4532;50.886;4.700;2022-10-29T04:43:31;13.52;;;7.88;;
8993;SDS011;4532;50.886;4.700;2022-10-29T04:45:58;13.80;;;7.35;;
8993;SDS011;4532;50.886;4.700;2022-10-29T04:48:28;15.02;;;7.25;;
8993;SDS011;4532;50.886;4.700;2022-10-29T04:50:55;16.33;;;8.03;;
8993;SDS011;4532;50.886;4.700;2022-10-29T04:53:22;13.70;;;7.63;;
8993;SDS011;4532;50.886;4.700;2022-10-29T04:55:50;16.15;;;6.95;;
8993;SDS011;4532;50.886;4.700;2022-10-29T04:58:18;13.45;;;7.20;;
8993;SDS011;4532;50.886;4.700;2022-10-29T05:00:45;14.65;;;7.38;;
8993;SDS011;4532;50.886;4.700;2022-10-29T05:03:12;14.73;;;7.13;;
8993;SDS011;4532;50.886;4.700;2022-10-29T05:05:42;14.65;;;6.90;;
8993;SDS011;4532;50.886;4.700;2022-10-29T05:08:11;13.73;;;7.50;;
8993;SDS011;4532;50.886;4.700;2022-10-29T05:10:40;14.80;;;7.47;;
8993;SDS011;4532;50.886;4.700;2022-10-29T05:13:09;17.48;;;6.93;;
8993;SDS011;4532;50.886;4.700;2022-10-29T05:15:39;14.68;;;7.22;;
8993;SDS011;4532;50.886;4.700;2022-10-29T05:18:07;15.07;;;6.93;;
8993;SDS011;4532;50.886;4.700;2022-10-29T05:20:35;13.25;;;6.93;;
8993;SDS011;4532;50.886;4.700;2022-10-29T05:23:04;12.53;;;7.33;;
8993;SDS011;4532;50.886;4.700;2022-10-29T05:25:33;10.05;;;6.78;;
8993;SDS011;4532;50.886;4.700;2022-10-29T05:30:38;11.80;;;6.72;;
8993;SDS011;4532;50.886;4.700;2022-10-29T05:33:06;11.23;;;6.43;;
8993;SDS011;4532;50.886;4.700;2022-10-29T05:35:34;11.63;;;6.43;;
8993;SDS011;4532;50.886;4.700;2022-10-29T05:38:02;10.57;;;6.10;;
8993;SDS011;4532;50.886;4.700;2022-10-29T05:40:29;12.50;;;5.97;;
8993;SDS011;4532;50.886;4.700;2022-10-29T05:42:57;12.45;;;6.35;;
8993;SDS011;4532;50.886;4.700;2022-10-29T05:45:25;11.52;;;6.93;;
8993;SDS011;4532;50.886;4.700;2022-10-29T05:47:58;11.27;;;6.50;;
8993;SDS011;4532;50.886;4.700;2022-10-29T05:50:27;11.57;;;6.32;;
8993;SDS011;4532;50.886;4.700;2022-10-29T05:53:04;14.95;;;7.13;;
8993;SDS011;4532;50.886;4.700;2022-10-29T05:55:35;15.98;;;6.63;;
8993;SDS011;4532;50.886;4.700;2022-10-29T05:58:03;13.80;;;5.97;;
8993;SDS011;4532;50.886;4.700;2022-10-29T06:00:34;13.32;;;6.32;;
8993;SDS011;4532;50.886;4.700;2022-10-29T06:03:02;12.82;;;6.50;;
8993;SDS011;4532;50.886;4.700;2022-10-29T06:05:29;9.60;;;5.93;;
8993;SDS011;4532;50.886;4.700;2022-10-29T06:07:57;16.42;;;6.50;;
8993;SDS011;4532;50.886;4.700;2022-10-29T06:10:27;12.73;;;6.20;;
8993;SDS011;4532;50.886;4.700;2022-10-29T06:12:56;13.17;;;6.47;;
8993;SDS011;4532;50.886;4.700;2022-10-29T06:15:24;12.33;;;6.27;;
8993;SDS011;4532;50.886;4.700;2022-10-29T06:17:51;13.73;;;6.72;;
8993;SDS011;4532;50.886;4.700;2022-10-29T06:20:21;15.30;;;6.27;;
8993;SDS011;4532;50.886;4.700;2022-10-29T06:22:54;10.75;;;5.90;;
8993;SDS011;4532;50.886;4.700;2022-10-29T06:25:24;12.98;;;6.20;;
8993;SDS011;4532;50.886;4.700;2022-10-29T06:27:59;10.88;;;6.20;;
8993;SDS011;4532;50.886;4.700;2022-10-29T06:30:27;13.45;;;6.38;;
8993;SDS011;4532;50.886;4.700;2022-10-29T06:32:55;14.82;;;6.97;;
8993;SDS011;4532;50.886;4.700;2022-10-29T06:35:22;11.48;;;6.40;;
8993;SDS011;4532;50.886;4.700;2022-10-29T06:37:50;10.57;;;6.63;;
8993;SDS011;4532;50.886;4.700;2022-10-29T06:40:17;14.20;;;6.80;;
8993;SDS011;4532;50.886;4.700;2022-10-29T06:42:45;12.00;;;6.18;;
8993;SDS011;4532;50.886;4.700;2022-10-29T06:45:12;13.40;;;6.20;;
8993;SDS011;4532;50.886;4.700;2022-10-29T06:47:43;17.45;;;6.50;;
8993;SDS011;4532;50.886;4.700;2022-10-29T06:50:11;13.75;;;6.28;;
8993;SDS011;4532;50.886;4.700;2022-10-29T06:52:39;16.65;;;7.00;;
8993;SDS011;4532;50.886;4.700;2022-10-29T06:55:09;12.50;;;6.20;;
8993;SDS011;4532;50.886;4.700;2022-10-29T06:57:39;11.73;;;6.38;;
8993;SDS011;4532;50.886;4.700;2022-10-29T07:00:07;11.70;;;6.13;;
8993;SDS011;4532;50.886;4.700;2022-10-29T07:02:35;13.25;;;6.43;;
8993;SDS011;4532;50.886;4.700;2022-10-29T07:05:02;12.82;;;6.32;;
8993;SDS011;4532;50.886;4.700;2022-10-29T07:07:29;16.00;;;6.40;;
8993;SDS011;4532;50.886;4.700;2022-10-29T07:09:57;14.95;;;5.90;;
8993;SDS011;4532;50.886;4.700;2022-10-29T07:12:26;13.98;;;6.88;;
8993;SDS011;4532;50.886;4.700;2022-10-29T07:14:55;13.75;;;7.07;;
8993;SDS011;4532;50.886;4.700;2022-10-29T07:17:22;10.25;;;6.22;;
8993;SDS011;4532;50.886;4.700;2022-10-29T07:19:50;12.75;;;6.63;;
8993;SDS011;4532;50.886;4.700;2022-10-29T07:22:17;12.70;;;6.68;;
8993;SDS011;4532;50.886;4.700;2022-10-29T07:24:46;13.07;;;6.68;;
8993;SDS011;4532;50.886;4.700;2022-10-29T07:27:13;12.77;;;6.20;;
8993;SDS011;4532;50.886;4.700;2022-10-29T07:29:40;13.05;;;6.72;;
8993;SDS011;4532;50.886;4.700;2022-10-29T07:32:07;13.13;;;6.57;;
8993;SDS011;4532;50.886;4.700;2022-10-29T07:34:35;11.30;;;6.38;;
8993;SDS011;4532;50.886;4.700;2022-10-29T07:37:02;14.45;;;6.20;;
8993;SDS011;4532;50.886;4.700;2022-10-29T07:39:29;14.50;;;6.53;;
8993;SDS011;4532;50.886;4.700;2022-10-29T07:42:01;10.00;;;6.10;;
8993;SDS011;4532;50.886;4.700;2022-10-29T07:44:28;14.32;;;7.15;;
8993;SDS011;4532;50.886;4.700;2022-10-29T07:46:57;15.20;;;6.57;;
8993;SDS011;4532;50.886;4.700;2022-10-29T07:49:28;11.85;;;6.10;;
8993;SDS011;4532;50.886;4.700;2022-10-29T07:51:55;13.80;;;6.35;;
8993;SDS011;4532;50.886;4.700;2022-10-29T07:54:24;12.98;;;6.57;;
8993;SDS011;4532;50.886;4.700;2022-10-29T07:56:51;7.80;;;5.45;;
8993;SDS011;4532;50.886;4.700;2022-10-29T07:59:19;11.35;;;5.55;;
8993;SDS011;4532;50.886;4.700;2022-10-29T08:01:46;10.35;;;5.95;;
8993;SDS011;4532;50.886;4.700;2022-10-29T08:04:13;13.02;;;5.95;;
8993;SDS011;4532;50.886;4.700;2022-10-29T08:06:40;9.73;;;5.53;;
8993;SDS011;4532;50.886;4.700;2022-10-29T08:09:09;10.45;;;6.15;;
8993;SDS011;4532;50.886;4.700;2022-10-29T08:11:37;9.88;;;5.10;;
8993;SDS011;4532;50.886;4.700;2022-10-29T08:14:04;10.18;;;5.35;;
8993;SDS011;4532;50.886;4.700;2022-10-29T08:16:36;9.40;;;5.65;;
8993;SDS011;4532;50.886;4.700;2022-10-29T08:19:03;13.00;;;5.63;;
8993;SDS011;4532;50.886;4.700;2022-10-29T08:21:33;12.70;;;5.70;;
8993;SDS011;4532;50.886;4.700;2022-10-29T08:24:00;9.43;;;5.45;;
8993;SDS011;4532;50.886;4.700;2022-10-29T08:26:29;9.77;;;5.95;;
8993;SDS011;4532;50.886;4.700;2022-10-29T08:28:57;10.75;;;5.20;;
8993;SDS011;4532;50.886;4.700;2022-10-29T08:31:24;11.43;;;6.50;;
8993;SDS011;4532;50.886;4.700;2022-10-29T08:33:54;12.60;;;5.90;;
8993;SDS011;4532;50.886;4.700;2022-10-29T08:36:21;9.52;;;4.95;;
8993;SDS011;4532;50.886;4.700;2022-10-29T08:38:48;11.23;;;5.75;;
8993;SDS011;4532;50.886;4.700;2022-10-29T08:49:41;10.35;;;5.75;;
8993;SDS011;4532;50.886;4.700;2022-10-29T08:52:17;9.65;;;5.45;;
8993;SDS011;4532;50.886;4.700;2022-10-29T08:54:51;11.27;;;5.50;;
8993;SDS011;4532;50.886;4.700;2022-10-29T08:57:48;10.23;;;5.55;;
8993;SDS011;4532;50.886;4.700;2022-10-29T09:00:26;11.60;;;4.93;;
8993;SDS011;4532;50.886;4.700;2022-10-29T09:02:59;9.75;;;5.28;;
8993;SDS011;4532;50.886;4.700;2022-10-29T09:05:29;13.50;;;5.13;;
8993;SDS011;4532;50.886;4.700;2022-10-29T09:08:16;8.18;;;5.10;;
8993;SDS011;4532;50.886;4.700;2022-10-29T09:10:56;10.47;;;4.93;;
8993;SDS011;4532;50.886;4.700;2022-10-29T09:13:36;8.13;;;4.72;;
8993;SDS011;4532;50.886;4.700;2022-10-29T09:24:57;12.45;;;5.30;;
8993;SDS011;4532;50.886;4.700;2022-10-29T09:28:38;7.57;;;4.40;;
8993;SDS011;4532;50.886;4.700;2022-10-29T09:33:53;8.32;;;4.25;;
8993;SDS011;4532;50.886;4.700;2022-10-29T09:36:28;8.38;;;4.63;;
8993;SDS011;4532;50.886;4.700;2022-10-29T09:39:00;10.13;;;4.35;;
8993;SDS011;4532;50.886;4.700;2022-10-29T09:41:35;9.63;;;4.53;;
8993;SDS011;4532;50.886;4.700;2022-10-29T09:44:22;9.75;;;4.72;;
8993;SDS011;4532;50.886;4.700;2022-10-29T09:47:14;8.95;;;4.13;;
8993;SDS011;4532;50.886;4.700;2022-10-29T09:50:02;13.70;;;4.45;;
8993;SDS011;4532;50.886;4.700;2022-10-29T09:52:50;9.55;;;4.70;;
8993;SDS011;4532;50.886;4.700;2022-10-29T09:57:56;12.43;;;4.40;;
8993;SDS011;4532;50.886;4.700;2022-10-29T10:00:29;10.02;;;4.75;;
8993;SDS011;4532;50.886;4.700;2022-10-29T10:03:11;12.43;;;4.65;;
8993;SDS011;4532;50.886;4.700;2022-10-29T10:08:28;7.47;;;4.05;;
8993;SDS011;4532;50.886;4.700;2022-10-29T10:11:03;7.55;;;4.30;;
8993;SDS011;4532;50.886;4.700;2022-10-29T10:13:35;10.63;;;4.70;;
8993;SDS011;4532;50.886;4.700;2022-10-29T10:16:21;12.40;;;4.78;;
8993;SDS011;4532;50.886;4.700;2022-10-29T10:18:53;15.15;;;4.53;;
8993;SDS011;4532;50.886;4.700;2022-10-29T10:21:24;8.15;;;4.10;;
8993;SDS011;4532;50.886;4.700;2022-10-29T10:23:59;12.90;;;4.25;;
8993;SDS011;4532;50.886;4.700;2022-10-29T10:34:15;7.97;;;4.63;;
8993;SDS011;4532;50.886;4.700;2022-10-29T10:36:51;9.88;;;4.40;;
8993;SDS011;4532;50.886;4.700;2022-10-29T10:42:03;11.52;;;4.43;;
8993;SDS011;4532;50.886;4.700;2022-10-29T10:44:32;7.13;;;3.88;;
8993;SDS011;4532;50.886;4.700;2022-10-29T10:47:10;6.93;;;4.13;;
8993;SDS011;4532;50.886;4.700;2022-10-29T10:49:38;10.73;;;4.13;;
8993;SDS011;4532;50.886;4.700;2022-10-29T10:52:17;10.32;;;4.50;;
8993;SDS011;4532;50.886;4.700;2022-10-29T10:54:56;7.25;;;3.88;;
8993;SDS011;4532;50.886;4.700;2022-10-29T10:57:29;9.43;;;4.22;;
8993;SDS011;4532;50.886;4.700;2022-10-29T11:00:05;10.43;;;4.38;;
8993;SDS011;4532;50.886;4.700;2022-10-29T11:05:16;8.85;;;3.80;;
8993;SDS011;4532;50.886;4.700;2022-10-29T11:08:32;8.85;;;4.22;;
8993;SDS011;4532;50.886;4.700;2022-10-29T11:13:20;9.93;;;4.03;;
8993;SDS011;4532;50.886;4.700;2022-10-29T11:18:56;6.88;;;3.20;;
8993;SDS011;4532;50.886;4.700;2022-10-29T11:21:36;6.38;;;3.63;;
8993;SDS011;4532;50.886;4.700;2022-10-29T11:24:16;9.63;;;4.30;;
8993;SDS011;4532;50.886;4.700;2022-10-29T11:26:53;10.38;;;3.58;;
8993;SDS011;4532;50.886;4.700;2022-10-29T11:29:31;10.00;;;3.78;;
8993;SDS011;4532;50.886;4.700;2022-10-29T11:40:33;7.43;;;3.30;;
8993;SDS011;4532;50.886;4.700;2022-10-29T11:43:10;5.53;;;3.40;;
8993;SDS011;4532;50.886;4.700;2022-10-29T11:45:53;7.70;;;3.28;;
8993;SDS011;4532;50.886;4.700;2022-10-29T12:06:08;7.65;;;3.40;;
8993;SDS011;4532;50.886;4.700;2022-10-29T12:11:21;7.90;;;3.10;;
8993;SDS011;4532;50.886;4.700;2022-10-29T12:14:39;8.63;;;3.58;;
8993;SDS011;4532;50.886;4.700;2022-10-29T12:17:08;7.55;;;3.17;;
8993;SDS011;4532;50.886;4.700;2022-10-29T12:19:49;7.70;;;3.50;;
8993;SDS011;4532;50.886;4.700;2022-10-29T12:30:08;6.43;;;3.65;;
8993;SDS011;4532;50.886;4.700;2022-10-29T12:33:00;10.23;;;3.88;;
8993;SDS011;4532;50.886;4.700;2022-10-29T12:35:46;9.73;;;3.30;;
8993;SDS011;4532;50.886;4.700;2022-10-29T12:41:03;9.52;;;3.08;;
8993;SDS011;4532;50.886;4.700;2022-10-29T12:43:35;6.70;;;3.35;;
8993;SDS011;4532;50.886;4.700;2022-10-29T12:51:48;7.97;;;3.28;;
8993;SDS011;4532;50.886;4.700;2022-10-29T12:59:40;12.15;;;3.58;;
8993;SDS011;4532;50.886;4.700;2022-10-29T13:02:29;6.78;;;3.17;;
8993;SDS011;4532;50.886;4.700;2022-10-29T13:15:42;8.05;;;3.42;;
8993;SDS011;4532;50.886;4.700;2022-10-29T13:18:22;8.50;;;3.30;;
8993;SDS011;4532;50.886;4.700;2022-10-29T13:21:07;8.30;;;3.22;;
8993;SDS011;4532;50.886;4.700;2022-10-29T13:23:35;8.20;;;3.00;;
8993;SDS011;4532;50.886;4.700;2022-10-29T13:26:04;6.05;;;3.30;;
8993;SDS011;4532;50.886;4.700;2022-10-29T13:36:00;7.00;;;3.40;;
8993;SDS011;4532;50.886;4.700;2022-10-29T13:43:56;5.63;;;2.80;;
8993;SDS011;4532;50.886;4.700;2022-10-29T13:49:19;8.00;;;2.92;;
8993;SDS011;4532;50.886;4.700;2022-10-29T13:51:54;9.18;;;3.03;;
8993;SDS011;4532;50.886;4.700;2022-10-29T13:57:08;8.40;;;3.25;;
8993;SDS011;4532;50.886;4.700;2022-10-29T13:59:41;10.30;;;3.22;;
8993;SDS011;4532;50.886;4.700;2022-10-29T14:04:49;7.68;;;3.20;;
8993;SDS011;4532;50.886;4.700;2022-10-29T14:07:32;8.75;;;3.10;;
8993;SDS011;4532;50.886;4.700;2022-10-29T14:10:26;8.60;;;3.47;;
8993;SDS011;4532;50.886;4.700;2022-10-29T14:16:06;9.55;;;3.30;;
8993;SDS011;4532;50.886;4.700;2022-10-29T14:18:36;8.98;;;3.42;;
8993;SDS011;4532;50.886;4.700;2022-10-29T14:21:26;8.25;;;3.33;;
8993;SDS011;4532;50.886;4.700;2022-10-29T14:24:05;8.88;;;3.38;;
8993;SDS011;4532;50.886;4.700;2022-10-29T14:26:38;6.32;;;3.38;;
8993;SDS011;4532;50.886;4.700;2022-10-29T14:29:19;8.98;;;3.55;;
8993;SDS011;4532;50.886;4.700;2022-10-29T14:32:24;8.27;;;3.20;;
8993;SDS011;4532;50.886;4.700;2022-10-29T14:34:48;10.32;;;3.25;;
8993;SDS011;4532;50.886;4.700;2022-10-29T14:37:30;7.95;;;3.00;;
8993;SDS011;4532;50.886;4.700;2022-10-29T14:40:05;8.93;;;3.47;;
8993;SDS011;4532;50.886;4.700;2022-10-29T14:42:45;12.45;;;3.72;;
8993;SDS011;4532;50.886;4.700;2022-10-29T14:45:22;4.88;;;3.20;;
8993;SDS011;4532;50.886;4.700;2022-10-29T14:47:57;5.28;;;2.60;;
8993;SDS011;4532;50.886;4.700;2022-10-29T14:50:33;7.88;;;3.10;;
8993;SDS011;4532;50.886;4.700;2022-10-29T14:53:17;6.00;;;3.28;;
8993;SDS011;4532;50.886;4.700;2022-10-29T14:56:05;8.13;;;3.08;;
8993;SDS011;4532;50.886;4.700;2022-10-29T14:58:36;8.30;;;3.42;;
8993;SDS011;4532;50.886;4.700;2022-10-29T15:01:11;9.38;;;3.10;;
8993;SDS011;4532;50.886;4.700;2022-10-29T15:03:41;10.73;;;3.38;;
8993;SDS011;4532;50.886;4.700;2022-10-29T15:08:53;10.02;;;3.47;;
8993;SDS011;4532;50.886;4.700;2022-10-29T15:11:34;9.00;;;3.85;;
8993;SDS011;4532;50.886;4.700;2022-10-29T15:17:09;10.18;;;3.70;;
8993;SDS011;4532;50.886;4.700;2022-10-29T15:19:42;11.23;;;3.75;;
8993;SDS011;4532;50.886;4.700;2022-10-29T15:22:17;11.70;;;4.28;;
8993;SDS011;4532;50.886;4.700;2022-10-29T15:24:47;8.23;;;4.18;;
8993;SDS011;4532;50.886;4.700;2022-10-29T15:27:17;11.27;;;4.55;;
8993;SDS011;4532;50.886;4.700;2022-10-29T15:29:44;10.20;;;4.15;;
8993;SDS011;4532;50.886;4.700;2022-10-29T15:32:14;10.05;;;4.07;;
8993;SDS011;4532;50.886;4.700;2022-10-29T15:34:46;10.93;;;4.20;;
8993;SDS011;4532;50.886;4.700;2022-10-29T15:42:28;11.65;;;4.60;;
8993;SDS011;4532;50.886;4.700;2022-10-29T15:47:42;10.95;;;4.57;;
8993;SDS011;4532;50.886;4.700;2022-10-29T15:50:18;12.88;;;4.80;;
8993;SDS011;4532;50.886;4.700;2022-10-29T15:52:57;15.07;;;5.07;;
8993;SDS011;4532;50.886;4.700;2022-10-29T15:55:30;12.05;;;5.45;;
8993;SDS011;4532;50.886;4.700;2022-10-29T15:58:09;9.75;;;4.93;;
8993;SDS011;4532;50.886;4.700;2022-10-29T16:00:41;9.80;;;4.40;;
8993;SDS011;4532;50.886;4.700;2022-10-29T16:03:19;10.55;;;4.78;;
8993;SDS011;4532;50.886;4.700;2022-10-29T16:05:55;11.02;;;4.25;;
8993;SDS011;4532;50.886;4.700;2022-10-29T16:10:59;10.95;;;4.03;;
8993;SDS011;4532;50.886;4.700;2022-10-29T16:13:28;10.15;;;4.35;;
8993;SDS011;4532;50.886;4.700;2022-10-29T16:15:56;10.45;;;4.60;;
8993;SDS011;4532;50.886;4.700;2022-10-29T16:18:23;8.10;;;4.03;;
8993;SDS011;4532;50.886;4.700;2022-10-29T16:20:55;7.70;;;3.65;;
8993;SDS011;4532;50.886;4.700;2022-10-29T16:23:23;13.52;;;4.72;;
8993;SDS011;4532;50.886;4.700;2022-10-29T16:25:51;8.85;;;4.32;;
8993;SDS011;4532;50.886;4.700;2022-10-29T16:28:18;9.60;;;4.35;;
8993;SDS011;4532;50.886;4.700;2022-10-29T16:30:54;9.63;;;4.30;;
8993;SDS011;4532;50.886;4.700;2022-10-29T16:33:24;9.10;;;4.43;;
8993;SDS011;4532;50.886;4.700;2022-10-29T16:35:54;11.52;;;4.82;;
8993;SDS011;4532;50.886;4.700;2022-10-29T16:38:23;9.13;;;4.18;;
8993;SDS011;4532;50.886;4.700;2022-10-29T16:40:51;9.05;;;4.72;;
8993;SDS011;4532;50.886;4.700;2022-10-29T16:43:18;12.73;;;5.03;;
8993;SDS011;4532;50.886;4.700;2022-10-29T16:45:45;9.18;;;4.45;;
8993;SDS011;4532;50.886;4.700;2022-10-29T16:48:12;11.27;;;5.35;;
8993;SDS011;4532;50.886;4.700;2022-10-29T16:50:39;11.70;;;5.60;;
8993;SDS011;4532;50.886;4.700;2022-10-29T16:53:07;11.05;;;5.75;;
8993;SDS011;4532;50.886;4.700;2022-10-29T16:55:40;12.18;;;5.60;;
8993;SDS011;4532;50.886;4.700;2022-10-29T16:58:08;12.88;;;5.43;;
8993;SDS011;4532;50.886;4.700;2022-10-29T17:00:38;12.90;;;5.50;;
8993;SDS011;4532;50.886;4.700;2022-10-29T17:03:06;11.70;;;5.20;;
8993;SDS011;4532;50.886;4.700;2022-10-29T17:05:41;13.23;;;6.03;;
8993;SDS011;4532;50.886;4.700;2022-10-29T17:08:12;13.20;;;6.28;;
8993;SDS011;4532;50.886;4.700;2022-10-29T17:10:39;16.85;;;6.38;;
8993;SDS011;4532;50.886;4.700;2022-10-29T17:13:06;17.60;;;7.35;;
8993;SDS011;4532;50.886;4.700;2022-10-29T17:15:39;12.20;;;5.97;;
8993;SDS011;4532;50.886;4.700;2022-10-29T17:18:07;12.15;;;5.80;;
8993;SDS011;4532;50.886;4.700;2022-10-29T17:20:34;11.57;;;5.70;;
8993;SDS011;4532;50.886;4.700;2022-10-29T17:23:01;13.27;;;5.90;;
8993;SDS011;4532;50.886;4.700;2022-10-29T17:25:28;11.85;;;5.32;;
8993;SDS011;4532;50.886;4.700;2022-10-29T17:27:56;10.15;;;5.28;;
8993;SDS011;4532;50.886;4.700;2022-10-29T17:30:23;11.18;;;5.45;;
8993;SDS011;4532;50.886;4.700;2022-10-29T17:32:50;13.20;;;5.47;;
8993;SDS011;4532;50.886;4.700;2022-10-29T17:35:17;12.63;;;5.35;;
8993;SDS011;4532;50.886;4.700;2022-10-29T17:37:45;11.48;;;4.78;;
8993;SDS011;4532;50.886;4.700;2022-10-29T17:40:12;10.43;;;5.65;;
8993;SDS011;4532;50.886;4.700;2022-10-29T17:42:42;16.75;;;6.65;;
8993;SDS011;4532;50.886;4.700;2022-10-29T17:45:09;12.25;;;6.13;;
8993;SDS011;4532;50.886;4.700;2022-10-29T17:47:38;12.40;;;6.68;;
8993;SDS011;4532;50.886;4.700;2022-10-29T17:50:10;12.98;;;6.38;;
8993;SDS011;4532;50.886;4.700;2022-10-29T17:52:37;11.50;;;6.45;;
8993;SDS011;4532;50.886;4.700;2022-10-29T17:55:04;12.90;;;6.05;;
8993;SDS011;4532;50.886;4.700;2022-10-29T17:57:32;12.00;;;6.40;;
8993;SDS011;4532;50.886;4.700;2022-10-29T17:59:59;11.43;;;6.40;;
8993;SDS011;4532;50.886;4.700;2022-10-29T18:02:26;13.57;;;6.35;;
8993;SDS011;4532;50.886;4.700;2022-10-29T18:04:54;10.57;;;6.20;;
8993;SDS011;4532;50.886;4.700;2022-10-29T18:07:21;13.32;;;5.95;;
8993;SDS011;4532;50.886;4.700;2022-10-29T18:09:48;12.02;;;6.13;;
8993;SDS011;4532;50.886;4.700;2022-10-29T18:12:17;9.35;;;5.97;;
8993;SDS011;4532;50.886;4.700;2022-10-29T18:14:44;13.18;;;6.35;;
8993;SDS011;4532;50.886;4.700;2022-10-29T18:17:11;10.95;;;5.88;;
8993;SDS011;4532;50.886;4.700;2022-10-29T18:19:38;10.30;;;6.05;;
8993;SDS011;4532;50.886;4.700;2022-10-29T18:22:05;13.38;;;7.40;;